Terminal Aerodrome Forecast
Issued by NWS Missoula, MT

Home | Current Version | Previous Version | Text Only | Print | Product List | Glossary On
Versions: 1 2 3 4 5 6 7 8 9 10 11 12 13 14
000
FTUS45 KMSO 211727
TAFGPI
TAF
KGPI 211727Z 2118/2218 20007KT P6SM SCT040 OVC060
     FM212100 19011KT P6SM VCSH OVC040
     FM220300 17007KT P6SM -RA BKN020 OVC035
     FM221200 18010G20KT P6SM -SHRA BKN035 OVC050
     FM221600 18015G25KT P6SM VCSH OVC050=

USA.gov is the U.S. government's official web portal to all federal, state and local government web resources and services.